Time,TemperatureF,DewpointF,PressureIn,WindDirection,WindDirectionDegrees,WindSpeedMPH,WindSpeedGustMPH,Humidity,HourlyPrecipIn,Conditions,Clouds,dailyrainin,SoftwareType,DateUTC
2013-01-21 00:03:00,49.5,44.9,30.13,SSW,195,0.0,0.0,84,0.00,CLR,,0.00,WeatherDisplay:10.37,2013-01-21 06:03:00,
2013-01-21 00:08:00,49.3,44.7,30.13,SSW,195,0.0,0.0,84,0.00,CLR,,0.00,WeatherDisplay:10.37,2013-01-21 06:08:00,
2013-01-21 00:13:00,49.1,44.5,30.13,SSW,195,0.0,0.0,84,0.00,CLR,,0.00,WeatherDisplay:10.37,2013-01-21 06:13:00,
2013-01-21 00:18:00,48.9,44.3,30.13,SSW,195,0.0,0.0,84,0.00,CLR,,0.00,WeatherDisplay:10.37,2013-01-21 06:18:00,
2013-01-21 00:23:00,48.7,44.4,30.13,SSW,195,0.0,0.0,85,0.00,CLR,,0.00,WeatherDisplay:10.37,2013-01-21 06:23:00,
2013-01-21 00:28:00,48.4,44.1,30.13,SSW,195,0.0,0.0,85,0.00,CLR,,0.00,WeatherDisplay:10.37,2013-01-21 06:28:00,
2013-01-21 00:33:00,48.2,43.9,30.13,SSW,195,0.0,0.0,85,0.00,CLR,,0.00,WeatherDisplay:10.37,2013-01-21 06:33:00,
2013-01-21 00:38:00,48.0,43.7,30.13,SSW,195,0.0,0.0,85,0.00,CLR,,0.00,WeatherDisplay:10.37,2013-01-21 06:38:00,
2013-01-21 00:43:00,47.9,43.6,30.13,SSW,195,0.0,0.0,85,0.00,CLR,,0.00,WeatherDisplay:10.37,2013-01-21 06:43:00,
2013-01-21 00:48:00,47.7,43.7,30.13,SSW,195,0.0,0.0,86,0.00,CLR,,0.00,WeatherDisplay:10.37,2013-01-21 06:48:00,
2013-01-21 00:53:00,47.7,43.7,30.13,SSW,195,0.0,0.0,86,0.00,CLR,,0.00,WeatherDisplay:10.37,2013-01-21 06:53:00,
2013-01-21 00:58:00,47.6,43.9,30.13,SSW,195,0.0,0.0,87,0.00,CLR,,0.00,WeatherDisplay:10.37,2013-01-21 06:58:00,
2013-01-21 01:03:00,47.6,43.9,30.13,SSW,195,0.0,0.0,87,0.00,CLR,,0.00,WeatherDisplay:10.37,2013-01-21 07:03:00,
2013-01-21 01:08:00,47.5,43.8,30.13,SSW,195,0.0,0.0,87,0.00,CLR,,0.00,WeatherDisplay:10.37,2013-01-21 07:08:00,
2013-01-21 01:13:00,47.3,43.6,30.13,SSW,195,0.0,0.0,87,0.00,CLR,,0.00,WeatherDisplay:10.37,2013-01-21 07:13:00,
2013-01-21 01:18:00,47.2,43.5,30.13,SSW,195,0.0,0.0,87,0.00,CLR,,0.00,WeatherDisplay:10.37,2013-01-21 07:18:00,
2013-01-21 01:23:00,47.1,43.4,30.12,SSW,195,0.0,0.0,87,0.00,CLR,,0.00,WeatherDisplay:10.37,2013-01-21 07:23:00,
2013-01-21 01:28:00,46.9,43.5,30.12,SSW,195,0.0,0.0,88,0.00,CLR,,0.00,WeatherDisplay:10.37,2013-01-21 07:28:00,
2013-01-21 01:33:00,46.9,43.5,30.13,SSW,195,0.0,0.0,88,0.00,CLR,,0.00,WeatherDisplay:10.37,2013-01-21 07:33:00,
2013-01-21 01:38:00,46.7,43.3,30.13,SSW,195,0.0,0.0,88,0.00,CLR,,0.00,WeatherDisplay:10.37,2013-01-21 07:38:00,
2013-01-21 01:43:00,46.5,43.1,30.13,SSW,195,0.0,0.0,88,0.00,CLR,,0.00,WeatherDisplay:10.37,2013-01-21 07:43:00,
2013-01-21 01:48:00,46.4,43.0,30.12,SSW,195,0.0,0.0,88,0.00,CLR,,0.00,WeatherDisplay:10.37,2013-01-21 07:48:00,
2013-01-21 01:53:00,46.2,42.8,30.13,SSW,195,0.0,0.0,88,0.00,CLR,,0.00,WeatherDisplay:10.37,2013-01-21 07:53:00,
2013-01-21 01:58:00,46.1,42.7,30.13,SSW,195,0.0,0.0,88,0.00,CLR,,0.00,WeatherDisplay:10.37,2013-01-21 07:58:00,
2013-01-21 02:03:00,45.9,42.5,30.13,SSW,195,0.0,0.0,88,0.00,CLR,,0.00,WeatherDisplay:10.37,2013-01-21 08:03:00,
2013-01-21 02:08:00,45.8,42.4,30.13,SSW,195,0.0,0.0,88,0.00,CLR,,0.00,WeatherDisplay:10.37,2013-01-21 08:08:00,
2013-01-21 02:13:00,45.7,42.3,30.13,SSW,195,0.0,0.0,88,0.00,CLR,,0.00,WeatherDisplay:10.37,2013-01-21 08:13:00,
2013-01-21 02:18:00,45.6,42.5,30.13,SSW,195,0.0,0.0,89,0.00,CLR,,0.00,WeatherDisplay:10.37,2013-01-21 08:18:00,
2013-01-21 02:23:00,45.8,42.7,30.13,SSW,195,0.0,0.0,89,0.00,CLR,,0.00,WeatherDisplay:10.37,2013-01-21 08:23:00,
2013-01-21 02:28:00,46.2,43.4,30.13,SSW,195,0.0,0.0,90,0.00,CLR,,0.00,WeatherDisplay:10.37,2013-01-21 08:28:00,
2013-01-21 02:33:00,46.5,43.7,30.13,SSW,195,0.0,0.0,90,0.00,CLR,,0.00,WeatherDisplay:10.37,2013-01-21 08:33:00,
2013-01-21 02:38:00,46.6,43.8,30.12,SSW,195,0.0,0.0,90,0.00,CLR,,0.00,WeatherDisplay:10.37,2013-01-21 08:38:00,
2013-01-21 02:43:00,46.6,43.8,30.12,SSW,195,0.0,0.0,90,0.00,CLR,,0.00,WeatherDisplay:10.37,2013-01-21 08:43:00,
2013-01-21 02:48:00,46.5,43.7,30.12,SSW,195,0.0,0.0,90,0.00,CLR,,0.00,WeatherDisplay:10.37,2013-01-21 08:48:00,
2013-01-21 02:53:00,46.5,43.7,30.12,SSW,195,0.0,0.0,90,0.00,CLR,,0.00,WeatherDisplay:10.37,2013-01-21 08:53:00,
2013-01-21 02:58:00,46.5,44.0,30.13,SSW,195,0.0,0.0,91,0.00,CLR,,0.00,WeatherDisplay:10.37,2013-01-21 08:58:00,
2013-01-21 03:03:00,46.8,44.3,30.12,SSW,195,0.0,0.0,91,0.00,CLR,,0.00,WeatherDisplay:10.37,2013-01-21 09:03:00,
2013-01-21 03:08:00,47.2,44.7,30.12,SSW,195,0.0,0.0,91,0.00,CLR,,0.00,WeatherDisplay:10.37,2013-01-21 09:08:00,
2013-01-21 03:13:00,47.5,45.3,30.12,SSW,195,0.0,0.0,92,0.00,CLR,,0.00,WeatherDisplay:10.37,2013-01-21 09:13:00,
2013-01-21 03:18:00,47.7,45.2,30.12,SSW,195,0.0,0.0,91,0.00,CLR,,0.00,WeatherDisplay:10.37,2013-01-21 09:18:00,
2013-01-21 03:23:00,47.7,45.2,30.12,SSW,195,1.2,0.0,91,0.00,CLR,,0.00,WeatherDisplay:10.37,2013-01-21 09:23:00,
2013-01-21 03:28:00,47.6,45.1,30.12,SSW,195,0.0,0.0,91,0.00,CLR,,0.00,WeatherDisplay:10.37,2013-01-21 09:28:00,
2013-01-21 03:33:00,47.4,44.9,30.12,SSW,195,0.0,0.0,91,0.00,CLR,,0.00,WeatherDisplay:10.37,2013-01-21 09:33:00,
2013-01-21 03:38:00,47.2,44.7,30.12,SSW,195,0.0,0.0,91,0.00,CLR,,0.00,WeatherDisplay:10.37,2013-01-21 09:38:00,
2013-01-21 03:43:00,46.9,44.4,30.12,SSW,195,0.0,0.2,91,0.00,CLR,,0.00,WeatherDisplay:10.37,2013-01-21 09:43:00,
2013-01-21 03:48:00,46.7,44.2,30.12,SSW,196,4.6,4.6,91,0.00,CLR,,0.00,WeatherDisplay:10.37,2013-01-21 09:48:00,
2013-01-21 03:53:00,46.2,43.4,30.12,SSW,198,0.0,0.9,90,0.00,CLR,,0.00,WeatherDisplay:10.37,2013-01-21 09:53:00,
2013-01-21 03:58:00,45.7,42.9,30.12,SSW,203,3.5,3.5,90,0.00,CLR,,0.00,WeatherDisplay:10.37,2013-01-21 09:58:00,
2013-01-21 04:03:00,45.2,42.4,30.12,SSW,210,3.5,3.5,90,0.00,CLR,,0.00,WeatherDisplay:10.37,2013-01-21 10:03:00,
2013-01-21 04:08:00,44.6,41.8,30.12,SW,219,3.5,3.5,90,0.00,CLR,,0.00,WeatherDisplay:10.37,2013-01-21 10:08:00,
2013-01-21 04:13:00,44.4,41.7,30.12,SW,224,4.6,4.6,90,0.00,CLR,,0.00,WeatherDisplay:10.37,2013-01-21 10:13:00,
2013-01-21 04:18:00,44.4,41.7,30.12,SW,225,0.0,0.2,90,0.00,CLR,,0.00,WeatherDisplay:10.37,2013-01-21 10:18:00,
2013-01-21 04:23:00,44.4,41.7,30.12,SW,226,3.5,0.0,90,0.00,CLR,,0.00,WeatherDisplay:10.37,2013-01-21 10:23:00,
2013-01-21 04:28:00,44.5,42.0,30.12,SW,227,4.6,4.6,91,0.00,CLR,,0.00,WeatherDisplay:10.37,2013-01-21 10:28:00,
2013-01-21 04:33:00,44.5,42.0,30.12,SW,228,3.5,3.5,91,0.00,CLR,,0.00,WeatherDisplay:10.37,2013-01-21 10:33:00,
2013-01-21 04:38:00,44.5,42.0,30.12,SW,229,0.0,1.7,91,0.00,CLR,,0.00,WeatherDisplay:10.37,2013-01-21 10:38:00,
2013-01-21 04:43:00,44.4,41.9,30.13,SW,229,3.5,3.5,91,0.00,CLR,,0.00,WeatherDisplay:10.37,2013-01-21 10:43:00,
2013-01-21 04:48:00,44.3,41.8,30.13,SW,232,4.6,4.6,91,0.00,CLR,,0.00,WeatherDisplay:10.37,2013-01-21 10:48:00,
2013-01-21 04:53:00,44.1,41.6,30.13,WSW,238,4.6,4.6,91,0.00,CLR,,0.00,WeatherDisplay:10.37,2013-01-21 10:53:00,
2013-01-21 04:58:00,43.9,41.4,30.13,WSW,240,5.8,5.8,91,0.00,CLR,,0.00,WeatherDisplay:10.37,2013-01-21 10:58:00,
2013-01-21 05:03:00,43.7,41.2,30.13,WSW,241,3.5,3.5,91,0.00,CLR,,0.00,WeatherDisplay:10.37,2013-01-21 11:03:00,
2013-01-21 05:08:00,43.7,41.2,30.13,WSW,243,4.6,4.6,91,0.00,CLR,,0.00,WeatherDisplay:10.37,2013-01-21 11:08:00,
2013-01-21 05:13:00,43.7,41.2,30.13,WSW,244,5.0,5.0,91,0.00,CLR,,0.00,WeatherDisplay:10.37,2013-01-21 11:13:00,
2013-01-21 05:18:00,43.6,41.1,30.13,WSW,244,0.0,0.0,91,0.00,CLR,,0.00,WeatherDisplay:10.37,2013-01-21 11:18:00,
2013-01-21 05:23:00,43.5,41.0,30.13,WSW,244,0.0,0.0,91,0.00,CLR,,0.00,WeatherDisplay:10.37,2013-01-21 11:23:00,
2013-01-21 05:28:00,43.5,41.0,30.13,WSW,244,0.0,0.0,91,0.00,CLR,,0.00,WeatherDisplay:10.37,2013-01-21 11:28:00,
2013-01-21 05:33:00,43.6,41.1,30.13,WSW,244,3.5,0.0,91,0.00,CLR,,0.00,WeatherDisplay:10.37,2013-01-21 11:33:00,
2013-01-21 05:38:00,43.6,41.1,30.13,WSW,245,1.2,0.0,91,0.00,CLR,,0.00,WeatherDisplay:10.37,2013-01-21 11:38:00,
2013-01-21 05:43:00,43.6,41.1,30.13,WSW,245,0.0,0.0,91,0.00,CLR,,0.00,WeatherDisplay:10.37,2013-01-21 11:43:00,
2013-01-21 05:48:00,43.7,41.5,30.13,WSW,245,0.0,0.0,92,0.00,CLR,,0.00,WeatherDisplay:10.37,2013-01-21 11:48:00,
2013-01-21 05:53:00,43.8,41.6,30.13,WSW,245,0.0,0.0,92,0.00,CLR,,0.00,WeatherDisplay:10.37,2013-01-21 11:53:00,
2013-01-21 05:58:00,44.0,41.8,30.13,WSW,245,0.0,0.0,92,0.00,CLR,,0.00,WeatherDisplay:10.37,2013-01-21 11:58:00,
2013-01-21 06:03:00,44.1,41.9,30.13,WSW,245,0.0,0.0,92,0.00,CLR,,0.00,WeatherDisplay:10.37,2013-01-21 12:03:00,
2013-01-21 06:08:00,44.1,41.9,30.14,WSW,246,4.6,4.6,92,0.00,CLR,,0.00,WeatherDisplay:10.37,2013-01-21 12:08:00,
2013-01-21 06:13:00,44.1,41.9,30.14,WSW,246,0.0,0.0,92,0.00,CLR,,0.00,WeatherDisplay:10.37,2013-01-21 12:13:00,
2013-01-21 06:18:00,44.1,41.9,30.14,WSW,249,4.6,4.6,92,0.00,CLR,,0.00,WeatherDisplay:10.37,2013-01-21 12:18:00,
2013-01-21 06:23:00,44.1,41.9,30.14,WSW,256,5.8,5.8,92,0.00,CLR,,0.00,WeatherDisplay:10.37,2013-01-21 12:23:00,
2013-01-21 06:28:00,44.1,41.9,30.14,West,269,9.2,9.2,92,0.00,CLR,,0.00,WeatherDisplay:10.37,2013-01-21 12:28:00,
2013-01-21 06:33:00,44.0,41.8,30.14,West,275,9.2,9.2,92,0.00,CLR,,0.00,WeatherDisplay:10.37,2013-01-21 12:33:00,
2013-01-21 06:38:00,43.9,41.7,30.14,West,279,5.8,5.8,92,0.00,CLR,,0.00,WeatherDisplay:10.37,2013-01-21 12:38:00,
2013-01-21 06:43:00,43.8,41.6,30.14,WNW,282,5.8,5.8,92,0.00,CLR,,0.00,WeatherDisplay:10.37,2013-01-21 12:43:00,
2013-01-21 06:48:00,43.6,41.4,30.15,WNW,284,6.9,6.9,92,0.00,CLR,,0.00,WeatherDisplay:10.37,2013-01-21 12:48:00,
2013-01-21 06:53:00,43.6,41.4,30.15,WNW,287,4.6,4.6,92,0.00,CLR,,0.00,WeatherDisplay:10.37,2013-01-21 12:53:00,
2013-01-21 06:58:00,43.5,41.3,30.15,WNW,290,6.9,6.9,92,0.00,CLR,,0.00,WeatherDisplay:10.37,2013-01-21 12:58:00,
2013-01-21 07:03:00,43.4,41.2,30.15,WNW,292,6.9,6.9,92,0.00,CLR,,0.00,WeatherDisplay:10.37,2013-01-21 13:03:00,
2013-01-21 07:08:00,43.3,41.1,30.15,WNW,295,5.8,5.8,92,0.00,CLR,,0.00,WeatherDisplay:10.37,2013-01-21 13:08:00,
2013-01-21 07:13:00,43.3,41.1,30.16,WNW,296,6.9,6.9,92,0.00,CLR,,0.00,WeatherDisplay:10.37,2013-01-21 13:13:00,
2013-01-21 07:18:00,43.4,41.2,30.16,WNW,296,4.6,4.6,92,0.00,CLR,,0.00,WeatherDisplay:10.37,2013-01-21 13:18:00,
2013-01-21 07:23:00,43.4,41.2,30.16,WNW,298,5.8,5.8,92,0.00,CLR,,0.00,WeatherDisplay:10.37,2013-01-21 13:23:00,
2013-01-21 07:28:00,43.5,41.3,30.16,WNW,298,4.6,4.6,92,0.00,CLR,,0.00,WeatherDisplay:10.37,2013-01-21 13:28:00,
2013-01-21 07:33:00,43.5,41.3,30.17,WNW,298,5.8,5.8,92,0.00,CLR,,0.00,WeatherDisplay:10.37,2013-01-21 13:33:00,
2013-01-21 07:38:00,43.7,41.5,30.17,WNW,300,6.9,6.9,92,0.00,CLR,,0.00,WeatherDisplay:10.37,2013-01-21 13:38:00,
2013-01-21 07:43:00,43.7,41.5,30.17,WNW,302,5.8,5.8,92,0.00,CLR,,0.00,WeatherDisplay:10.37,2013-01-21 13:43:00,
2013-01-21 07:48:00,43.9,41.7,30.17,WNW,302,5.8,5.8,92,0.00,CLR,,0.00,WeatherDisplay:10.37,2013-01-21 13:48:00,
2013-01-21 07:53:00,44.0,41.8,30.17,WNW,302,5.8,5.8,92,0.00,CLR,,0.00,WeatherDisplay:10.37,2013-01-21 13:53:00,
2013-01-21 07:58:00,44.1,42.2,30.18,WNW,303,5.8,5.8,93,0.00,CLR,,0.00,WeatherDisplay:10.37,2013-01-21 13:58:00,
2013-01-21 08:03:00,44.2,42.3,30.17,WNW,303,4.6,4.6,93,0.00,CLR,,0.00,WeatherDisplay:10.37,2013-01-21 14:03:00,
2013-01-21 08:08:00,44.3,42.4,30.18,NW,304,5.8,5.8,93,0.00,CLR,,0.00,WeatherDisplay:10.37,2013-01-21 14:08:00,
2013-01-21 08:13:00,44.5,42.6,30.18,WNW,303,4.6,4.6,93,0.00,CLR,,0.00,WeatherDisplay:10.37,2013-01-21 14:13:00,
2013-01-21 08:18:00,44.8,42.9,30.18,NW,304,3.5,3.5,93,0.00,CLR,,0.00,WeatherDisplay:10.37,2013-01-21 14:18:00,
2013-01-21 08:23:00,45.2,43.3,30.18,NW,304,5.8,5.8,93,0.00,CLR,,0.00,WeatherDisplay:10.37,2013-01-21 14:23:00,
2013-01-21 08:28:00,45.6,43.7,30.18,WNW,303,3.5,3.5,93,0.00,CLR,,0.00,WeatherDisplay:10.37,2013-01-21 14:28:00,
2013-01-21 08:33:00,46.2,44.3,30.18,NW,304,2.3,2.3,93,0.00,CLR,,0.00,WeatherDisplay:10.37,2013-01-21 14:33:00,
2013-01-21 08:38:00,46.6,44.7,30.19,NW,304,7.0,7.0,93,0.00,CLR,,0.00,WeatherDisplay:10.37,2013-01-21 14:38:00,
2013-01-21 08:43:00,46.9,45.0,30.19,NW,306,5.8,5.8,93,0.00,CLR,,0.00,WeatherDisplay:10.37,2013-01-21 14:43:00,
2013-01-21 08:48:00,47.1,45.2,30.19,NW,306,5.8,5.8,93,0.00,CLR,,0.00,WeatherDisplay:10.37,2013-01-21 14:48:00,
2013-01-21 08:53:00,47.3,45.4,30.19,NW,306,3.5,3.5,93,0.00,CLR,,0.00,WeatherDisplay:10.37,2013-01-21 14:53:00,
2013-01-21 08:58:00,47.7,45.8,30.20,NW,306,1.0,0.0,93,0.00,CLR,,0.00,WeatherDisplay:10.37,2013-01-21 14:58:00,
2013-01-21 09:03:00,48.0,46.1,30.20,NW,306,0.0,0.0,93,0.00,CLR,,0.00,WeatherDisplay:10.37,2013-01-21 15:03:00,
2013-01-21 09:08:00,48.5,46.6,30.20,NW,306,0.0,0.0,93,0.00,CLR,,0.00,WeatherDisplay:10.37,2013-01-21 15:08:00,
2013-01-21 09:13:00,49.1,47.2,30.20,NW,306,5.8,5.8,93,0.00,CLR,,0.00,WeatherDisplay:10.37,2013-01-21 15:13:00,
2013-01-21 09:18:00,49.7,47.8,30.20,NW,306,0.0,0.0,93,0.00,CLR,,0.00,WeatherDisplay:10.37,2013-01-21 15:18:00,
2013-01-21 09:23:00,50.5,48.6,30.20,NW,306,0.0,0.0,93,0.00,CLR,,0.00,WeatherDisplay:10.37,2013-01-21 15:23:00,
2013-01-21 09:28:00,51.3,49.3,30.20,NW,306,5.8,5.8,93,0.00,CLR,,0.00,WeatherDisplay:10.37,2013-01-21 15:28:00,
2013-01-21 09:33:00,52.1,49.8,30.20,NW,306,3.5,3.5,92,0.00,CLR,,0.00,WeatherDisplay:10.37,2013-01-21 15:33:00,
2013-01-21 09:38:00,52.8,50.5,30.21,NW,306,1.2,1.2,92,0.00,CLR,,0.00,WeatherDisplay:10.37,2013-01-21 15:38:00,
2013-01-21 09:43:00,53.6,50.7,30.21,NW,306,4.6,4.6,90,0.00,CLR,,0.00,WeatherDisplay:10.37,2013-01-21 15:43:00,
2013-01-21 09:48:00,54.2,50.7,30.21,NW,306,3.5,3.5,88,0.00,CLR,,0.00,WeatherDisplay:10.37,2013-01-21 15:48:00,
2013-01-21 09:53:00,54.8,50.7,30.21,NW,306,4.6,4.6,86,0.00,CLR,,0.00,WeatherDisplay:10.37,2013-01-21 15:53:00,
2013-01-21 09:58:00,55.2,50.4,30.21,NW,306,3.5,3.5,84,0.00,CLR,,0.00,WeatherDisplay:10.37,2013-01-21 15:58:00,
2013-01-21 10:03:00,55.8,50.7,30.22,NW,306,0.0,0.0,83,0.00,CLR,,0.00,WeatherDisplay:10.37,2013-01-21 16:03:00,
2013-01-21 10:08:00,56.4,51.0,30.22,NW,306,0.0,0.0,82,0.00,CLR,,0.00,WeatherDisplay:10.37,2013-01-21 16:08:00,
2013-01-21 10:13:00,57.0,51.2,30.22,NW,306,0.0,0.0,81,0.00,CLR,,0.00,WeatherDisplay:10.37,2013-01-21 16:13:00,
2013-01-21 10:18:00,57.7,51.6,30.22,NW,306,3.5,0.0,80,0.00,CLR,,0.00,WeatherDisplay:10.37,2013-01-21 16:18:00,
2013-01-21 10:23:00,58.4,52.3,30.22,NW,306,1.2,0.0,80,0.00,CLR,,0.00,WeatherDisplay:10.37,2013-01-21 16:23:00,
2013-01-21 10:28:00,59.1,52.6,30.22,NW,306,0.0,0.0,79,0.00,CLR,,0.00,WeatherDisplay:10.37,2013-01-21 16:28:00,
2013-01-21 10:33:00,59.6,52.7,30.22,NW,306,0.0,0.0,78,0.00,CLR,,0.00,WeatherDisplay:10.37,2013-01-21 16:33:00,
2013-01-21 10:38:00,60.4,53.2,30.22,NW,306,3.5,0.0,77,0.00,CLR,,0.00,WeatherDisplay:10.37,2013-01-21 16:38:00,
2013-01-21 10:43:00,60.8,53.2,30.22,NW,306,3.5,3.5,76,0.00,CLR,,0.00,WeatherDisplay:10.37,2013-01-21 16:43:00,
2013-01-21 10:48:00,61.5,53.5,30.22,NW,306,4.6,4.6,75,0.00,CLR,,0.00,WeatherDisplay:10.37,2013-01-21 16:48:00,
2013-01-21 10:53:00,62.1,54.1,30.22,NW,306,0.0,0.0,75,0.00,CLR,,0.00,WeatherDisplay:10.37,2013-01-21 16:53:00,
2013-01-21 10:58:00,62.4,54.0,30.22,NW,306,3.5,3.5,74,0.00,CLR,,0.00,WeatherDisplay:10.37,2013-01-21 16:58:00,
2013-01-21 11:03:00,62.7,53.9,30.22,WNW,303,6.9,6.9,73,0.00,CLR,,0.00,WeatherDisplay:10.37,2013-01-21 17:03:00,
2013-01-21 11:08:00,63.0,54.2,30.22,WNW,302,4.6,4.6,73,0.00,CLR,,0.00,WeatherDisplay:10.37,2013-01-21 17:08:00,
2013-01-21 11:13:00,63.6,54.8,30.22,WNW,296,5.8,5.8,73,0.00,CLR,,0.00,WeatherDisplay:10.37,2013-01-21 17:13:00,
2013-01-21 11:18:00,64.1,54.5,30.22,West,271,5.8,5.8,71,0.00,CLR,,0.00,WeatherDisplay:10.37,2013-01-21 17:18:00,
2013-01-21 11:23:00,64.3,55.1,30.21,WSW,254,3.5,3.5,72,0.00,CLR,,0.00,WeatherDisplay:10.37,2013-01-21 17:23:00,
2013-01-21 11:28:00,64.5,55.3,30.21,WSW,248,8.1,8.1,72,0.00,CLR,,0.00,WeatherDisplay:10.37,2013-01-21 17:28:00,
2013-01-21 11:33:00,64.6,55.0,30.21,WSW,248,5.8,5.8,71,0.00,CLR,,0.00,WeatherDisplay:10.37,2013-01-21 17:33:00,
2013-01-21 11:38:00,64.4,54.8,30.21,WSW,248,2.3,0.0,71,0.00,CLR,,0.00,WeatherDisplay:10.37,2013-01-21 17:38:00,
2013-01-21 11:43:00,64.3,54.7,30.21,WSW,248,3.5,3.5,71,0.00,CLR,,0.00,WeatherDisplay:10.37,2013-01-21 17:43:00,
2013-01-21 11:48:00,64.2,55.0,30.21,WSW,248,0.0,0.0,72,0.00,CLR,,0.00,WeatherDisplay:10.37,2013-01-21 17:48:00,
2013-01-21 11:53:00,64.5,55.3,30.20,WSW,248,0.0,0.0,72,0.00,CLR,,0.00,WeatherDisplay:10.37,2013-01-21 17:53:00,
2013-01-21 11:58:00,64.9,55.7,30.20,WSW,248,0.0,0.0,72,0.00,CLR,,0.00,WeatherDisplay:10.37,2013-01-21 17:58:00,
2013-01-21 12:03:00,65.3,55.3,30.20,WSW,248,0.0,0.0,70,0.00,CLR,,0.00,WeatherDisplay:10.37,2013-01-21 18:03:00,
2013-01-21 12:08:00,65.4,55.4,30.20,WSW,248,0.0,0.0,70,0.00,CLR,,0.00,WeatherDisplay:10.37,2013-01-21 18:08:00,
2013-01-21 12:13:00,65.6,55.2,30.20,WSW,248,5.8,5.8,69,0.00,CLR,,0.00,WeatherDisplay:10.37,2013-01-21 18:13:00,
2013-01-21 12:18:00,66.2,54.9,30.20,SW,219,9.2,9.2,67,0.00,CLR,,0.00,WeatherDisplay:10.37,2013-01-21 18:18:00,
2013-01-21 12:23:00,66.7,55.4,30.19,SSW,203,9.2,9.2,67,0.00,CLR,,0.00,WeatherDisplay:10.37,2013-01-21 18:23:00,
2013-01-21 12:28:00,67.2,55.5,30.19,South,185,5.8,5.8,66,0.00,CLR,,0.00,WeatherDisplay:10.37,2013-01-21 18:28:00,
2013-01-21 12:33:00,67.3,55.1,30.19,South,184,4.6,4.6,65,0.00,CLR,,0.00,WeatherDisplay:10.37,2013-01-21 18:33:00,
2013-01-21 12:38:00,67.2,55.0,30.19,South,184,0.0,0.0,65,0.00,CLR,,0.00,WeatherDisplay:10.37,2013-01-21 18:38:00,
2013-01-21 12:43:00,67.0,54.8,30.19,South,184,3.5,3.5,65,0.00,CLR,,0.00,WeatherDisplay:10.37,2013-01-21 18:43:00,
2013-01-21 12:48:00,66.8,55.1,30.18,South,184,3.5,3.5,66,0.00,CLR,,0.00,WeatherDisplay:10.37,2013-01-21 18:48:00,
2013-01-21 12:53:00,66.7,55.0,30.18,South,185,0.0,0.0,66,0.00,CLR,,0.00,WeatherDisplay:10.37,2013-01-21 18:53:00,
2013-01-21 12:58:00,66.5,55.2,30.18,South,185,0.0,0.0,67,0.00,CLR,,0.00,WeatherDisplay:10.37,2013-01-21 18:58:00,
2013-01-21 13:03:00,66.4,54.7,30.18,South,187,2.3,2.3,66,0.00,CLR,,0.00,WeatherDisplay:10.37,2013-01-21 19:03:00,
2013-01-21 13:08:00,66.3,55.0,30.17,South,188,0.0,0.0,67,0.00,CLR,,0.00,WeatherDisplay:10.37,2013-01-21 19:08:00,
2013-01-21 13:13:00,66.4,54.7,30.17,South,189,5.8,5.8,66,0.00,CLR,,0.00,WeatherDisplay:10.37,2013-01-21 19:13:00,
2013-01-21 13:18:00,67.0,54.8,30.17,SSW,206,4.6,5.1,65,0.00,CLR,,0.00,WeatherDisplay:10.37,2013-01-21 19:18:00,
2013-01-21 13:23:00,67.8,55.2,30.16,SSW,206,5.8,5.8,64,0.00,CLR,,0.00,WeatherDisplay:10.37,2013-01-21 19:23:00,
2013-01-21 13:28:00,68.6,54.6,30.16,South,191,6.9,6.9,61,0.00,CLR,,0.00,WeatherDisplay:10.37,2013-01-21 19:28:00,
2013-01-21 13:33:00,69.0,54.1,30.16,South,190,10.4,10.4,59,0.00,CLR,,0.00,WeatherDisplay:10.37,2013-01-21 19:33:00,
2013-01-21 13:38:00,69.4,54.9,30.15,South,188,3.5,0.0,60,0.00,CLR,,0.00,WeatherDisplay:10.37,2013-01-21 19:38:00,
2013-01-21 13:43:00,69.6,54.2,30.15,South,179,5.8,5.8,58,0.00,CLR,,0.00,WeatherDisplay:10.37,2013-01-21 19:43:00,
2013-01-21 13:48:00,69.5,54.1,30.15,South,177,5.8,5.8,58,0.00,CLR,,0.00,WeatherDisplay:10.37,2013-01-21 19:48:00,
2013-01-21 13:53:00,69.2,53.3,30.15,South,177,0.0,0.0,57,0.00,CLR,,0.00,WeatherDisplay:10.37,2013-01-21 19:53:00,
2013-01-21 13:58:00,69.4,53.0,30.15,South,176,0.0,0.0,56,0.00,CLR,,0.00,WeatherDisplay:10.37,2013-01-21 19:58:00,
2013-01-21 14:03:00,69.5,53.6,30.15,South,182,9.2,9.2,57,0.00,CLR,,0.00,WeatherDisplay:10.37,2013-01-21 20:03:00,
2013-01-21 14:08:00,69.4,53.5,30.15,South,182,0.0,0.0,57,0.00,CLR,,0.00,WeatherDisplay:10.37,2013-01-21 20:08:00,
2013-01-21 14:13:00,69.5,53.6,30.14,South,178,2.3,2.3,57,0.00,CLR,,0.00,WeatherDisplay:10.37,2013-01-21 20:13:00,
2013-01-21 14:18:00,69.5,53.1,30.14,South,177,3.5,4.1,56,0.00,CLR,,0.00,WeatherDisplay:10.37,2013-01-21 20:18:00,
2013-01-21 14:23:00,69.4,52.5,30.14,South,176,3.5,3.5,55,0.00,CLR,,0.00,WeatherDisplay:10.37,2013-01-21 20:23:00,
2013-01-21 14:28:00,69.3,52.4,30.14,South,176,0.0,0.0,55,0.00,CLR,,0.00,WeatherDisplay:10.37,2013-01-21 20:28:00,
2013-01-21 14:33:00,69.7,53.3,30.14,South,176,0.0,0.0,56,0.00,CLR,,0.00,WeatherDisplay:10.37,2013-01-21 20:33:00,
2013-01-21 14:38:00,70.2,53.8,30.14,SSE,157,2.3,2.3,56,0.00,CLR,,0.00,WeatherDisplay:10.37,2013-01-21 20:38:00,
2013-01-21 14:43:00,70.4,53.0,30.14,SSE,157,4.6,4.6,54,0.00,CLR,,0.00,WeatherDisplay:10.37,2013-01-21 20:43:00,
2013-01-21 14:48:00,70.6,53.1,30.14,South,171,11.5,11.5,54,0.00,CLR,,0.00,WeatherDisplay:10.37,2013-01-21 20:48:00,
2013-01-21 14:53:00,70.7,52.7,30.14,SSW,195,11.5,11.5,53,0.00,CLR,,0.00,WeatherDisplay:10.37,2013-01-21 20:53:00,
2013-01-21 14:58:00,70.6,52.6,30.14,SSW,199,6.9,6.9,53,0.00,CLR,,0.00,WeatherDisplay:10.37,2013-01-21 20:58:00,
2013-01-21 15:03:00,70.6,52.1,30.14,SSW,194,6.9,6.9,52,0.00,CLR,,0.00,WeatherDisplay:10.37,2013-01-21 21:03:00,
2013-01-21 15:08:00,70.7,52.2,30.14,South,191,9.2,9.2,52,0.00,CLR,,0.00,WeatherDisplay:10.37,2013-01-21 21:08:00,
2013-01-21 15:13:00,70.7,51.7,30.14,SSW,194,5.8,5.8,51,0.00,CLR,,0.00,WeatherDisplay:10.37,2013-01-21 21:13:00,
2013-01-21 15:18:00,70.7,51.7,30.13,SSW,192,4.0,4.0,51,0.00,CLR,,0.00,WeatherDisplay:10.37,2013-01-21 21:18:00,
2013-01-21 15:23:00,70.8,51.2,30.13,South,188,4.6,4.6,50,0.00,CLR,,0.00,WeatherDisplay:10.37,2013-01-21 21:23:00,
2013-01-21 15:28:00,70.9,51.3,30.13,South,188,5.8,5.8,50,0.00,CLR,,0.00,WeatherDisplay:10.37,2013-01-21 21:28:00,
2013-01-21 15:33:00,71.0,50.9,30.13,South,188,4.6,4.6,49,0.00,CLR,,0.00,WeatherDisplay:10.37,2013-01-21 21:33:00,
2013-01-21 15:38:00,71.1,51.0,30.13,South,187,4.6,4.6,49,0.00,CLR,,0.00,WeatherDisplay:10.37,2013-01-21 21:38:00,
2013-01-21 15:43:00,71.0,50.3,30.13,South,169,3.5,3.5,48,0.00,CLR,,0.00,WeatherDisplay:10.37,2013-01-21 21:43:00,
2013-01-21 15:48:00,71.1,49.3,30.13,SSE,168,0.0,0.0,46,0.00,CLR,,0.00,WeatherDisplay:10.37,2013-01-21 21:48:00,
2013-01-21 15:53:00,71.2,49.9,30.13,South,170,0.0,0.0,47,0.00,CLR,,0.00,WeatherDisplay:10.37,2013-01-21 21:53:00,
2013-01-21 15:58:00,71.4,50.7,30.13,SSE,161,8.1,8.1,48,0.00,CLR,,0.00,WeatherDisplay:10.37,2013-01-21 21:58:00,
2013-01-21 16:03:00,71.3,50.6,30.13,South,170,4.6,4.6,48,0.00,CLR,,0.00,WeatherDisplay:10.37,2013-01-21 22:03:00,
2013-01-21 16:08:00,71.2,50.5,30.13,South,170,6.9,6.9,48,0.00,CLR,,0.00,WeatherDisplay:10.37,2013-01-21 22:08:00,
2013-01-21 16:13:00,71.2,49.9,30.13,South,177,10.4,10.4,47,0.00,CLR,,0.00,WeatherDisplay:10.37,2013-01-21 22:13:00,
2013-01-21 16:18:00,71.1,49.3,30.13,South,179,3.5,3.5,46,0.00,CLR,,0.00,WeatherDisplay:10.37,2013-01-21 22:18:00,
2013-01-21 16:23:00,71.0,49.2,30.13,South,179,3.5,3.5,46,0.00,CLR,,0.00,WeatherDisplay:10.37,2013-01-21 22:23:00,
2013-01-21 16:28:00,71.1,49.3,30.13,South,179,0.0,0.3,46,0.00,CLR,,0.00,WeatherDisplay:10.37,2013-01-21 22:28:00,
2013-01-21 16:33:00,71.1,49.8,30.13,South,179,3.5,3.5,47,0.00,CLR,,0.00,WeatherDisplay:10.37,2013-01-21 22:33:00,
2013-01-21 16:38:00,71.1,51.0,30.13,South,179,2.3,2.3,49,0.00,CLR,,0.00,WeatherDisplay:10.37,2013-01-21 22:38:00,
2013-01-21 16:43:00,71.0,50.3,30.13,South,179,0.0,0.0,48,0.00,CLR,,0.00,WeatherDisplay:10.37,2013-01-21 22:43:00,
2013-01-21 16:48:00,71.0,50.3,30.13,South,179,4.6,4.6,48,0.00,CLR,,0.00,WeatherDisplay:10.37,2013-01-21 22:48:00,
2013-01-21 16:53:00,70.9,49.7,30.13,South,179,5.8,5.8,47,0.00,CLR,,0.00,WeatherDisplay:10.37,2013-01-21 22:53:00,
2013-01-21 16:58:00,70.8,49.6,30.13,South,179,3.5,3.5,47,0.00,CLR,,0.00,WeatherDisplay:10.37,2013-01-21 22:58:00,
2013-01-21 17:03:00,70.8,49.6,30.13,South,179,0.0,1.2,47,0.00,CLR,,0.00,WeatherDisplay:10.37,2013-01-21 23:03:00,
2013-01-21 17:08:00,70.7,50.0,30.13,South,179,0.0,0.1,48,0.00,CLR,,0.00,WeatherDisplay:10.37,2013-01-21 23:08:00,
2013-01-21 17:13:00,70.5,49.9,30.13,South,179,2.3,0.0,48,0.00,CLR,,0.00,WeatherDisplay:10.37,2013-01-21 23:13:00,
2013-01-21 17:18:00,70.4,50.3,30.13,South,179,0.0,0.0,49,0.00,CLR,,0.00,WeatherDisplay:10.37,2013-01-21 23:18:00,
2013-01-21 17:23:00,70.3,50.2,30.13,South,179,0.0,0.0,49,0.00,CLR,,0.00,WeatherDisplay:10.37,2013-01-21 23:23:00,
2013-01-21 17:28:00,70.1,50.6,30.13,South,179,0.0,0.0,50,0.00,CLR,,0.00,WeatherDisplay:10.37,2013-01-21 23:28:00,
2013-01-21 17:33:00,70.0,51.0,30.13,South,179,0.0,0.0,51,0.00,CLR,,0.00,WeatherDisplay:10.37,2013-01-21 23:33:00,
2013-01-21 17:38:00,69.9,50.9,30.13,South,179,0.0,0.0,51,0.00,CLR,,0.00,WeatherDisplay:10.37,2013-01-21 23:38:00,
2013-01-21 17:43:00,69.8,51.4,30.14,South,179,0.0,0.0,52,0.00,CLR,,0.00,WeatherDisplay:10.37,2013-01-21 23:43:00,
2013-01-21 17:48:00,69.7,51.3,30.14,South,179,0.0,0.0,52,0.00,CLR,,0.00,WeatherDisplay:10.37,2013-01-21 23:48:00,
2013-01-21 17:53:00,69.4,51.5,30.14,South,179,0.0,0.0,53,0.00,CLR,,0.00,WeatherDisplay:10.37,2013-01-21 23:53:00,
2013-01-21 17:58:00,69.0,51.7,30.14,South,179,0.0,0.0,54,0.00,CLR,,0.00,WeatherDisplay:10.37,2013-01-21 23:58:00,
2013-01-21 18:03:00,68.7,51.4,30.14,South,179,0.0,0.0,54,0.00,CLR,,0.00,WeatherDisplay:10.37,2013-01-22 00:03:00,
2013-01-21 18:08:00,68.0,51.2,30.14,South,179,0.0,0.0,55,0.00,CLR,,0.00,WeatherDisplay:10.37,2013-01-22 00:08:00,
2013-01-21 18:13:00,67.5,50.8,30.14,South,179,0.0,0.0,55,0.00,CLR,,0.00,WeatherDisplay:10.37,2013-01-22 00:13:00,
2013-01-21 18:18:00,67.0,50.8,30.14,South,179,0.0,0.0,56,0.00,CLR,,0.00,WeatherDisplay:10.37,2013-01-22 00:18:00,
2013-01-21 18:23:00,66.5,50.8,30.14,South,179,0.0,0.0,57,0.00,CLR,,0.00,WeatherDisplay:10.37,2013-01-22 00:23:00,
2013-01-21 18:28:00,65.9,50.7,30.14,South,179,0.0,0.0,58,0.00,CLR,,0.00,WeatherDisplay:10.37,2013-01-22 00:28:00,
2013-01-21 18:33:00,65.3,50.1,30.14,South,179,0.0,0.0,58,0.00,CLR,,0.00,WeatherDisplay:10.37,2013-01-22 00:33:00,
2013-01-21 18:38:00,64.7,50.0,30.14,South,179,0.0,0.0,59,0.00,CLR,,0.00,WeatherDisplay:10.37,2013-01-22 00:38:00,
2013-01-21 18:43:00,64.2,50.0,30.14,South,179,0.0,0.0,60,0.00,CLR,,0.00,WeatherDisplay:10.37,2013-01-22 00:43:00,
2013-01-21 18:48:00,63.5,49.4,30.14,South,179,0.0,0.0,60,0.00,CLR,,0.00,WeatherDisplay:10.37,2013-01-22 00:48:00,
2013-01-21 18:53:00,62.9,49.2,30.14,South,179,0.0,0.0,61,0.00,CLR,,0.00,WeatherDisplay:10.37,2013-01-22 00:53:00,
2013-01-21 18:58:00,62.3,49.1,30.15,South,179,0.0,0.0,62,0.00,CLR,,0.00,WeatherDisplay:10.37,2013-01-22 00:58:00,
2013-01-21 19:03:00,61.7,49.0,30.14,South,179,0.0,0.0,63,0.00,CLR,,0.00,WeatherDisplay:10.37,2013-01-22 01:03:00,
2013-01-21 19:08:00,61.1,48.8,30.15,South,179,0.0,0.0,64,0.00,CLR,,0.00,WeatherDisplay:10.37,2013-01-22 01:08:00,
2013-01-21 19:13:00,60.6,48.8,30.15,South,179,0.0,0.0,65,0.00,CLR,,0.00,WeatherDisplay:10.37,2013-01-22 01:13:00,
2013-01-21 19:18:00,60.1,48.7,30.15,South,179,0.0,0.0,66,0.00,CLR,,0.00,WeatherDisplay:10.37,2013-01-22 01:18:00,
2013-01-21 19:23:00,59.5,48.5,30.15,South,179,0.0,0.0,67,0.00,CLR,,0.00,WeatherDisplay:10.37,2013-01-22 01:23:00,
2013-01-21 19:28:00,59.3,48.7,30.15,South,179,0.0,0.0,68,0.00,CLR,,0.00,WeatherDisplay:10.37,2013-01-22 01:28:00,
2013-01-21 19:33:00,58.8,48.6,30.15,South,179,0.0,0.0,69,0.00,CLR,,0.00,WeatherDisplay:10.37,2013-01-22 01:33:00,
2013-01-21 19:38:00,58.4,48.7,30.15,South,179,0.0,0.0,70,0.00,CLR,,0.00,WeatherDisplay:10.37,2013-01-22 01:38:00,
2013-01-21 19:43:00,58.0,48.3,30.15,South,179,0.0,0.0,70,0.00,CLR,,0.00,WeatherDisplay:10.37,2013-01-22 01:43:00,
2013-01-21 19:48:00,57.7,48.4,30.15,South,179,0.0,0.0,71,0.00,CLR,,0.00,WeatherDisplay:10.37,2013-01-22 01:48:00,
2013-01-21 19:53:00,57.3,48.0,30.15,South,179,0.0,0.0,71,0.00,CLR,,0.00,WeatherDisplay:10.37,2013-01-22 01:53:00,
2013-01-21 19:58:00,56.9,48.0,30.15,South,179,0.0,0.0,72,0.00,CLR,,0.00,WeatherDisplay:10.37,2013-01-22 01:58:00,
2013-01-21 20:03:00,56.6,47.7,30.16,South,179,0.0,0.0,72,0.00,CLR,,0.00,WeatherDisplay:10.37,2013-01-22 02:03:00,
2013-01-21 20:08:00,56.3,47.8,30.16,South,179,0.0,0.0,73,0.00,CLR,,0.00,WeatherDisplay:10.37,2013-01-22 02:08:00,
2013-01-21 20:13:00,56.1,47.6,30.16,South,179,0.0,0.0,73,0.00,CLR,,0.00,WeatherDisplay:10.37,2013-01-22 02:13:00,
2013-01-21 20:18:00,55.8,47.6,30.16,South,179,0.0,0.0,74,0.00,CLR,,0.00,WeatherDisplay:10.37,2013-01-22 02:18:00,
2013-01-21 20:23:00,55.5,47.3,30.16,South,179,0.0,0.0,74,0.00,CLR,,0.00,WeatherDisplay:10.37,2013-01-22 02:23:00,
2013-01-21 20:28:00,55.3,47.5,30.16,South,179,0.0,0.0,75,0.00,CLR,,0.00,WeatherDisplay:10.37,2013-01-22 02:28:00,
2013-01-21 20:33:00,55.1,47.3,30.16,South,179,0.0,0.0,75,0.00,CLR,,0.00,WeatherDisplay:10.37,2013-01-22 02:33:00,
2013-01-21 20:38:00,55.2,48.5,30.16,South,179,0.0,0.0,78,0.00,CLR,,0.00,WeatherDisplay:10.37,2013-01-22 02:38:00,
2013-01-21 20:43:00,55.7,48.9,30.16,South,179,0.0,0.0,78,0.00,CLR,,0.00,WeatherDisplay:10.37,2013-01-22 02:43:00,
2013-01-21 20:48:00,56.1,49.0,30.16,South,179,0.0,0.0,77,0.00,CLR,,0.00,WeatherDisplay:10.37,2013-01-22 02:48:00,
2013-01-21 20:53:00,56.3,48.8,30.17,South,179,0.0,0.0,76,0.00,CLR,,0.00,WeatherDisplay:10.37,2013-01-22 02:53:00,
2013-01-21 20:58:00,56.4,48.9,30.17,South,179,0.0,0.0,76,0.00,CLR,,0.00,WeatherDisplay:10.37,2013-01-22 02:58:00,
2013-01-21 21:03:00,56.5,48.7,30.17,South,179,0.0,0.0,75,0.00,CLR,,0.00,WeatherDisplay:10.37,2013-01-22 03:03:00,
2013-01-21 21:08:00,56.5,48.3,30.17,South,179,0.0,0.0,74,0.00,CLR,,0.00,WeatherDisplay:10.37,2013-01-22 03:08:00,
2013-01-21 21:13:00,56.4,48.6,30.17,South,179,0.0,0.0,75,0.00,CLR,,0.00,WeatherDisplay:10.37,2013-01-22 03:13:00,
2013-01-21 21:18:00,56.4,48.6,30.17,South,179,0.0,0.0,75,0.00,CLR,,0.00,WeatherDisplay:10.37,2013-01-22 03:18:00,
2013-01-21 21:23:00,56.8,49.0,30.17,South,177,0.0,0.2,75,0.00,CLR,,0.00,WeatherDisplay:10.37,2013-01-22 03:23:00,
2013-01-21 21:28:00,57.2,49.0,30.18,SSE,167,3.5,3.5,74,0.00,CLR,,0.00,WeatherDisplay:10.37,2013-01-22 03:28:00,
2013-01-21 21:33:00,57.4,48.4,30.18,SSE,165,3.5,3.5,72,0.00,CLR,,0.00,WeatherDisplay:10.37,2013-01-22 03:33:00,
2013-01-21 21:38:00,57.4,48.1,30.18,SSE,164,0.0,0.0,71,0.00,CLR,,0.00,WeatherDisplay:10.37,2013-01-22 03:38:00,
2013-01-21 21:43:00,57.3,48.0,30.18,SSE,164,0.0,0.0,71,0.00,CLR,,0.00,WeatherDisplay:10.37,2013-01-22 03:43:00,
2013-01-21 21:48:00,57.2,47.9,30.18,SSE,164,0.0,0.0,71,0.00,CLR,,0.00,WeatherDisplay:10.37,2013-01-22 03:48:00,
2013-01-21 21:53:00,57.0,47.7,30.18,SSE,164,0.0,0.0,71,0.00,CLR,,0.00,WeatherDisplay:10.37,2013-01-22 03:53:00,
2013-01-21 21:58:00,56.7,47.4,30.18,SSE,164,2.3,0.0,71,0.00,CLR,,0.00,WeatherDisplay:10.37,2013-01-22 03:58:00,
2013-01-21 22:03:00,56.5,47.2,30.18,SSE,164,0.0,0.0,71,0.00,CLR,,0.00,WeatherDisplay:10.37,2013-01-22 04:03:00,
2013-01-21 22:08:00,56.3,46.6,30.18,SSE,164,0.0,0.0,70,0.00,CLR,,0.00,WeatherDisplay:10.37,2013-01-22 04:08:00,
2013-01-21 22:13:00,56.1,46.4,30.18,SSE,164,0.0,0.0,70,0.00,CLR,,0.00,WeatherDisplay:10.37,2013-01-22 04:13:00,
2013-01-21 22:18:00,55.9,46.3,30.18,SSE,164,0.0,0.0,70,0.00,CLR,,0.00,WeatherDisplay:10.37,2013-01-22 04:18:00,
2013-01-21 22:23:00,55.8,46.2,30.18,SSE,164,0.0,0.0,70,0.00,CLR,,0.00,WeatherDisplay:10.37,2013-01-22 04:23:00,
2013-01-21 22:28:00,55.5,46.2,30.19,SSE,164,0.0,0.0,71,0.00,CLR,,0.00,WeatherDisplay:10.37,2013-01-22 04:28:00,
2013-01-21 22:33:00,55.3,46.1,30.19,SSE,164,0.0,0.0,71,0.00,CLR,,0.00,WeatherDisplay:10.37,2013-01-22 04:33:00,
2013-01-21 22:38:00,54.8,46.3,30.19,SSE,164,0.0,0.0,73,0.00,CLR,,0.00,WeatherDisplay:10.37,2013-01-22 04:38:00,
2013-01-21 22:43:00,54.4,46.3,30.19,SSE,164,0.0,0.0,74,0.00,CLR,,0.00,WeatherDisplay:10.37,2013-01-22 04:43:00,
2013-01-21 22:48:00,54.2,46.4,30.19,SSE,164,0.0,0.0,75,0.00,CLR,,0.00,WeatherDisplay:10.37,2013-01-22 04:48:00,
2013-01-21 22:53:00,53.9,46.2,30.19,SSE,164,0.0,0.0,75,0.00,CLR,,0.00,WeatherDisplay:10.37,2013-01-22 04:53:00,
2013-01-21 22:58:00,53.6,46.2,30.19,SSE,164,0.0,0.0,76,0.00,CLR,,0.00,WeatherDisplay:10.37,2013-01-22 04:58:00,
2013-01-21 23:00:00,53.5,46.1,30.19,SSE,164,0.0,0.0,76,0.00,CLR,,0.00,WeatherDisplay:10.37,2013-01-22 05:00:00,
2013-01-21 23:01:00,53.4,46.0,30.19,SSE,164,0.0,0.0,76,0.00,CLR,,0.00,WeatherDisplay:10.37,2013-01-22 05:01:00,
2013-01-21 23:06:00,53.2,45.8,30.19,SSE,164,0.0,0.0,76,0.00,CLR,,0.00,WeatherDisplay:10.37,2013-01-22 05:06:00,
2013-01-21 23:12:00,52.9,45.5,30.19,SSE,164,0.0,0.0,76,0.00,CLR,,0.00,WeatherDisplay:10.37,2013-01-22 05:12:00,
2013-01-21 23:17:00,52.7,45.7,30.19,SSE,164,0.0,0.0,77,0.00,CLR,,0.00,WeatherDisplay:10.37,2013-01-22 05:17:00,
2013-01-21 23:22:00,52.4,45.4,30.19,SSE,164,0.0,0.0,77,0.00,CLR,,0.00,WeatherDisplay:10.37,2013-01-22 05:22:00,
2013-01-21 23:27:00,52.2,45.2,30.19,SSE,164,0.0,0.0,77,0.00,CLR,,0.00,WeatherDisplay:10.37,2013-01-22 05:27:00,
2013-01-21 23:32:00,52.0,45.0,30.19,SSE,164,0.0,0.0,77,0.00,CLR,,0.00,WeatherDisplay:10.37,2013-01-22 05:32:00,
2013-01-21 23:37:00,51.8,44.8,30.19,SSE,164,0.0,0.0,77,0.00,CLR,,0.00,WeatherDisplay:10.37,2013-01-22 05:37:00,
2013-01-21 23:42:00,51.6,44.6,30.19,SSE,164,0.0,0.0,77,0.00,CLR,,0.00,WeatherDisplay:10.37,2013-01-22 05:42:00,
2013-01-21 23:47:00,51.4,44.4,30.19,SSE,164,0.0,0.0,77,0.00,CLR,,0.00,WeatherDisplay:10.37,2013-01-22 05:47:00,
2013-01-21 23:52:00,51.1,44.1,30.19,SSE,164,0.0,0.0,77,0.00,CLR,,0.00,WeatherDisplay:10.37,2013-01-22 05:52:00,
2013-01-21 23:57:00,50.9,43.9,30.19,SSE,164,0.0,0.0,77,0.00,CLR,,0.00,WeatherDisplay:10.37,2013-01-22 05:57:00,